sensor_id;sensor_type;location;lat;lon;timestamp;P1;durP1;ratioP1;P2;durP2;ratioP2
16117;SDS011;8163;50.118;5.342;2022-12-07T00:01:41;88.03;;;26.65;;
16117;SDS011;8163;50.118;5.342;2022-12-07T00:04:10;217.93;;;29.77;;
16117;SDS011;8163;50.118;5.342;2022-12-07T00:06:40;282.83;;;33.60;;
16117;SDS011;8163;50.118;5.342;2022-12-07T00:09:09;167.80;;;27.38;;
16117;SDS011;8163;50.118;5.342;2022-12-07T00:11:37;221.93;;;29.45;;
16117;SDS011;8163;50.118;5.342;2022-12-07T00:14:05;61.63;;;25.95;;
16117;SDS011;8163;50.118;5.342;2022-12-07T00:16:34;286.35;;;32.05;;
16117;SDS011;8163;50.118;5.342;2022-12-07T00:19:02;307.55;;;31.98;;
16117;SDS011;8163;50.118;5.342;2022-12-07T00:21:31;461.13;;;34.97;;
16117;SDS011;8163;50.118;5.342;2022-12-07T00:24:01;191.60;;;29.75;;
16117;SDS011;8163;50.118;5.342;2022-12-07T00:26:29;238.07;;;30.13;;
16117;SDS011;8163;50.118;5.342;2022-12-07T00:28:58;139.93;;;28.35;;
16117;SDS011;8163;50.118;5.342;2022-12-07T00:31:28;98.22;;;27.40;;
16117;SDS011;8163;50.118;5.342;2022-12-07T00:33:58;272.08;;;30.33;;
16117;SDS011;8163;50.118;5.342;2022-12-07T00:36:26;145.77;;;29.00;;
16117;SDS011;8163;50.118;5.342;2022-12-07T00:38:53;249.98;;;31.33;;
16117;SDS011;8163;50.118;5.342;2022-12-07T00:41:22;290.70;;;32.45;;
16117;SDS011;8163;50.118;5.342;2022-12-07T00:43:50;167.48;;;27.95;;
16117;SDS011;8163;50.118;5.342;2022-12-07T00:46:18;406.73;;;33.88;;
16117;SDS011;8163;50.118;5.342;2022-12-07T00:48:46;198.45;;;27.63;;
16117;SDS011;8163;50.118;5.342;2022-12-07T00:51:14;455.48;;;35.15;;
16117;SDS011;8163;50.118;5.342;2022-12-07T00:53:43;448.00;;;35.22;;
16117;SDS011;8163;50.118;5.342;2022-12-07T00:56:11;589.72;;;38.15;;
16117;SDS011;8163;50.118;5.342;2022-12-07T00:58:41;420.23;;;35.00;;
16117;SDS011;8163;50.118;5.342;2022-12-07T01:01:09;384.70;;;33.80;;
16117;SDS011;8163;50.118;5.342;2022-12-07T01:03:37;252.52;;;30.05;;
16117;SDS011;8163;50.118;5.342;2022-12-07T01:06:05;500.40;;;36.95;;
16117;SDS011;8163;50.118;5.342;2022-12-07T01:08:32;395.13;;;34.90;;
16117;SDS011;8163;50.118;5.342;2022-12-07T01:11:00;241.98;;;30.98;;
16117;SDS011;8163;50.118;5.342;2022-12-07T01:13:29;187.15;;;30.30;;
16117;SDS011;8163;50.118;5.342;2022-12-07T01:15:59;242.57;;;34.30;;
16117;SDS011;8163;50.118;5.342;2022-12-07T01:18:29;105.05;;;27.00;;
16117;SDS011;8163;50.118;5.342;2022-12-07T01:20:59;425.33;;;39.13;;
16117;SDS011;8163;50.118;5.342;2022-12-07T01:23:27;361.10;;;35.97;;
16117;SDS011;8163;50.118;5.342;2022-12-07T01:25:55;520.10;;;41.83;;
16117;SDS011;8163;50.118;5.342;2022-12-07T01:28:24;113.70;;;28.25;;
16117;SDS011;8163;50.118;5.342;2022-12-07T01:30:55;734.15;;;46.60;;
16117;SDS011;8163;50.118;5.342;2022-12-07T01:33:24;323.20;;;33.15;;
16117;SDS011;8163;50.118;5.342;2022-12-07T01:35:53;370.80;;;34.45;;
16117;SDS011;8163;50.118;5.342;2022-12-07T01:38:20;194.07;;;31.08;;
16117;SDS011;8163;50.118;5.342;2022-12-07T01:40:53;165.93;;;27.52;;
16117;SDS011;8163;50.118;5.342;2022-12-07T01:43:21;76.28;;;26.30;;
16117;SDS011;8163;50.118;5.342;2022-12-07T01:45:50;162.90;;;29.35;;
16117;SDS011;8163;50.118;5.342;2022-12-07T01:48:20;278.25;;;30.48;;
16117;SDS011;8163;50.118;5.342;2022-12-07T01:50:52;158.23;;;31.50;;
16117;SDS011;8163;50.118;5.342;2022-12-07T01:53:24;242.68;;;32.72;;
16117;SDS011;8163;50.118;5.342;2022-12-07T01:55:54;268.75;;;32.00;;
16117;SDS011;8163;50.118;5.342;2022-12-07T01:58:23;196.10;;;29.52;;
16117;SDS011;8163;50.118;5.342;2022-12-07T02:00:51;202.93;;;32.42;;
16117;SDS011;8163;50.118;5.342;2022-12-07T02:03:18;199.95;;;31.67;;
16117;SDS011;8163;50.118;5.342;2022-12-07T02:05:49;205.88;;;33.53;;
16117;SDS011;8163;50.118;5.342;2022-12-07T02:08:17;263.20;;;33.88;;
16117;SDS011;8163;50.118;5.342;2022-12-07T02:10:45;133.52;;;28.65;;
16117;SDS011;8163;50.118;5.342;2022-12-07T02:13:12;280.42;;;33.70;;
16117;SDS011;8163;50.118;5.342;2022-12-07T02:15:44;123.40;;;30.20;;
16117;SDS011;8163;50.118;5.342;2022-12-07T02:18:22;162.55;;;33.40;;
16117;SDS011;8163;50.118;5.342;2022-12-07T02:20:59;86.85;;;29.48;;
16117;SDS011;8163;50.118;5.342;2022-12-07T02:23:41;469.75;;;50.10;;
16117;SDS011;8163;50.118;5.342;2022-12-07T02:26:38;112.15;;;29.70;;
16117;SDS011;8163;50.118;5.342;2022-12-07T02:29:24;259.65;;;35.38;;
16117;SDS011;8163;50.118;5.342;2022-12-07T02:31:55;265.23;;;36.88;;
16117;SDS011;8163;50.118;5.342;2022-12-07T02:34:33;226.93;;;31.77;;
16117;SDS011;8163;50.118;5.342;2022-12-07T02:37:08;533.60;;;40.25;;
16117;SDS011;8163;50.118;5.342;2022-12-07T02:39:41;273.30;;;56.97;;
16117;SDS011;8163;50.118;5.342;2022-12-07T02:42:13;160.52;;;32.78;;
16117;SDS011;8163;50.118;5.342;2022-12-07T02:44:46;424.30;;;37.95;;
16117;SDS011;8163;50.118;5.342;2022-12-07T02:47:14;151.77;;;35.30;;
16117;SDS011;8163;50.118;5.342;2022-12-07T02:49:44;306.65;;;37.05;;
16117;SDS011;8163;50.118;5.342;2022-12-07T02:52:12;151.43;;;31.52;;
16117;SDS011;8163;50.118;5.342;2022-12-07T02:54:39;162.07;;;36.67;;
16117;SDS011;8163;50.118;5.342;2022-12-07T02:57:10;383.77;;;43.55;;
16117;SDS011;8163;50.118;5.342;2022-12-07T02:59:51;636.08;;;46.92;;
16117;SDS011;8163;50.118;5.342;2022-12-07T03:02:28;655.83;;;41.03;;
16117;SDS011;8163;50.118;5.342;2022-12-07T03:05:07;586.40;;;41.13;;
16117;SDS011;8163;50.118;5.342;2022-12-07T03:07:49;290.50;;;44.95;;
16117;SDS011;8163;50.118;5.342;2022-12-07T03:10:27;529.63;;;40.45;;
16117;SDS011;8163;50.118;5.342;2022-12-07T03:13:01;516.67;;;44.58;;
16117;SDS011;8163;50.118;5.342;2022-12-07T03:15:35;592.17;;;40.40;;
16117;SDS011;8163;50.118;5.342;2022-12-07T03:18:08;495.67;;;48.03;;
16117;SDS011;8163;50.118;5.342;2022-12-07T03:20:38;295.92;;;36.47;;
16117;SDS011;8163;50.118;5.342;2022-12-07T03:23:08;525.90;;;58.70;;
16117;SDS011;8163;50.118;5.342;2022-12-07T03:25:39;547.85;;;40.83;;
16117;SDS011;8163;50.118;5.342;2022-12-07T03:28:08;512.78;;;41.60;;
16117;SDS011;8163;50.118;5.342;2022-12-07T03:30:42;423.27;;;47.50;;
16117;SDS011;8163;50.118;5.342;2022-12-07T03:33:14;595.17;;;44.65;;
16117;SDS011;8163;50.118;5.342;2022-12-07T03:35:47;444.42;;;37.28;;
16117;SDS011;8163;50.118;5.342;2022-12-07T03:38:21;775.03;;;62.90;;
16117;SDS011;8163;50.118;5.342;2022-12-07T03:40:52;594.22;;;44.13;;
16117;SDS011;8163;50.118;5.342;2022-12-07T03:43:24;686.05;;;70.65;;
16117;SDS011;8163;50.118;5.342;2022-12-07T03:45:56;610.60;;;49.67;;
16117;SDS011;8163;50.118;5.342;2022-12-07T03:48:31;537.90;;;47.70;;
16117;SDS011;8163;50.118;5.342;2022-12-07T03:51:03;644.15;;;44.08;;
16117;SDS011;8163;50.118;5.342;2022-12-07T03:53:39;439.63;;;37.00;;
16117;SDS011;8163;50.118;5.342;2022-12-07T03:56:11;734.10;;;48.15;;
16117;SDS011;8163;50.118;5.342;2022-12-07T03:58:39;733.75;;;41.85;;
16117;SDS011;8163;50.118;5.342;2022-12-07T04:01:08;535.10;;;46.83;;
16117;SDS011;8163;50.118;5.342;2022-12-07T04:03:36;705.83;;;53.45;;
16117;SDS011;8163;50.118;5.342;2022-12-07T04:06:03;700.55;;;41.17;;
16117;SDS011;8163;50.118;5.342;2022-12-07T04:08:30;725.45;;;44.70;;
16117;SDS011;8163;50.118;5.342;2022-12-07T04:10:57;579.38;;;39.67;;
16117;SDS011;8163;50.118;5.342;2022-12-07T04:13:24;497.83;;;52.47;;
16117;SDS011;8163;50.118;5.342;2022-12-07T04:15:51;396.83;;;37.35;;
16117;SDS011;8163;50.118;5.342;2022-12-07T04:18:20;521.88;;;38.45;;
16117;SDS011;8163;50.118;5.342;2022-12-07T04:20:47;579.05;;;37.03;;
16117;SDS011;8163;50.118;5.342;2022-12-07T04:23:14;553.35;;;40.13;;
16117;SDS011;8163;50.118;5.342;2022-12-07T04:25:41;295.85;;;35.28;;
16117;SDS011;8163;50.118;5.342;2022-12-07T04:28:08;505.33;;;45.17;;
16117;SDS011;8163;50.118;5.342;2022-12-07T04:30:35;491.88;;;38.40;;
16117;SDS011;8163;50.118;5.342;2022-12-07T04:33:02;516.47;;;39.30;;
16117;SDS011;8163;50.118;5.342;2022-12-07T04:35:30;436.92;;;37.92;;
16117;SDS011;8163;50.118;5.342;2022-12-07T04:37:57;487.20;;;42.75;;
16117;SDS011;8163;50.118;5.342;2022-12-07T04:40:24;359.00;;;34.83;;
16117;SDS011;8163;50.118;5.342;2022-12-07T04:42:51;545.33;;;45.63;;
16117;SDS011;8163;50.118;5.342;2022-12-07T04:45:18;473.52;;;35.15;;
16117;SDS011;8163;50.118;5.342;2022-12-07T04:47:45;394.73;;;36.53;;
16117;SDS011;8163;50.118;5.342;2022-12-07T04:50:12;420.73;;;34.47;;
16117;SDS011;8163;50.118;5.342;2022-12-07T04:52:41;663.17;;;39.65;;
16117;SDS011;8163;50.118;5.342;2022-12-07T04:55:08;287.38;;;32.15;;
16117;SDS011;8163;50.118;5.342;2022-12-07T04:57:35;549.60;;;39.15;;
16117;SDS011;8163;50.118;5.342;2022-12-07T05:00:02;321.63;;;36.50;;
16117;SDS011;8163;50.118;5.342;2022-12-07T05:02:29;344.23;;;35.55;;
16117;SDS011;8163;50.118;5.342;2022-12-07T05:04:56;417.42;;;36.90;;
16117;SDS011;8163;50.118;5.342;2022-12-07T05:07:23;495.50;;;42.80;;
16117;SDS011;8163;50.118;5.342;2022-12-07T05:09:52;687.80;;;41.85;;
16117;SDS011;8163;50.118;5.342;2022-12-07T05:12:19;465.75;;;37.92;;
16117;SDS011;8163;50.118;5.342;2022-12-07T05:14:46;448.33;;;40.15;;
16117;SDS011;8163;50.118;5.342;2022-12-07T05:17:13;468.65;;;39.22;;
16117;SDS011;8163;50.118;5.342;2022-12-07T05:19:40;648.80;;;41.50;;
16117;SDS011;8163;50.118;5.342;2022-12-07T05:22:07;428.98;;;40.13;;
16117;SDS011;8163;50.118;5.342;2022-12-07T05:24:34;379.77;;;39.00;;
16117;SDS011;8163;50.118;5.342;2022-12-07T05:27:03;425.45;;;37.88;;
16117;SDS011;8163;50.118;5.342;2022-12-07T05:29:30;601.90;;;41.30;;
16117;SDS011;8163;50.118;5.342;2022-12-07T05:31:57;409.95;;;36.75;;
16117;SDS011;8163;50.118;5.342;2022-12-07T05:34:24;775.45;;;42.75;;
16117;SDS011;8163;50.118;5.342;2022-12-07T05:36:51;736.17;;;44.47;;
16117;SDS011;8163;50.118;5.342;2022-12-07T05:39:18;440.45;;;36.78;;
16117;SDS011;8163;50.118;5.342;2022-12-07T05:41:45;386.88;;;40.08;;
16117;SDS011;8163;50.118;5.342;2022-12-07T05:44:31;440.95;;;36.30;;
16117;SDS011;8163;50.118;5.342;2022-12-07T05:46:58;404.42;;;35.65;;
16117;SDS011;8163;50.118;5.342;2022-12-07T05:49:25;692.78;;;44.10;;
16117;SDS011;8163;50.118;5.342;2022-12-07T05:51:52;533.25;;;40.00;;
16117;SDS011;8163;50.118;5.342;2022-12-07T05:54:19;464.63;;;37.40;;
16117;SDS011;8163;50.118;5.342;2022-12-07T05:56:46;460.10;;;34.40;;
16117;SDS011;8163;50.118;5.342;2022-12-07T05:59:13;346.50;;;36.92;;
16117;SDS011;8163;50.118;5.342;2022-12-07T06:01:50;291.00;;;33.60;;
16117;SDS011;8163;50.118;5.342;2022-12-07T06:04:18;571.72;;;39.20;;
16117;SDS011;8163;50.118;5.342;2022-12-07T06:06:45;458.52;;;40.95;;
16117;SDS011;8163;50.118;5.342;2022-12-07T06:09:13;524.03;;;39.03;;
16117;SDS011;8163;50.118;5.342;2022-12-07T06:11:40;771.03;;;45.17;;
16117;SDS011;8163;50.118;5.342;2022-12-07T06:14:25;513.80;;;39.33;;
16117;SDS011;8163;50.118;5.342;2022-12-07T06:16:53;574.80;;;36.42;;
16117;SDS011;8163;50.118;5.342;2022-12-07T06:19:20;395.42;;;34.88;;
16117;SDS011;8163;50.118;5.342;2022-12-07T06:21:47;326.95;;;35.15;;
16117;SDS011;8163;50.118;5.342;2022-12-07T06:24:15;505.17;;;38.85;;
16117;SDS011;8163;50.118;5.342;2022-12-07T06:26:43;260.60;;;32.50;;
16117;SDS011;8163;50.118;5.342;2022-12-07T06:29:11;443.85;;;37.60;;
16117;SDS011;8163;50.118;5.342;2022-12-07T06:31:38;501.83;;;39.40;;
16117;SDS011;8163;50.118;5.342;2022-12-07T06:34:09;523.97;;;39.92;;
16117;SDS011;8163;50.118;5.342;2022-12-07T06:36:36;439.40;;;35.63;;
16117;SDS011;8163;50.118;5.342;2022-12-07T06:39:04;515.63;;;37.28;;
16117;SDS011;8163;50.118;5.342;2022-12-07T06:41:32;546.30;;;48.63;;
16117;SDS011;8163;50.118;5.342;2022-12-07T06:43:59;595.72;;;53.42;;
16117;SDS011;8163;50.118;5.342;2022-12-07T06:46:26;686.58;;;46.75;;
16117;SDS011;8163;50.118;5.342;2022-12-07T06:48:54;695.58;;;42.92;;
16117;SDS011;8163;50.118;5.342;2022-12-07T06:51:22;467.60;;;37.28;;
16117;SDS011;8163;50.118;5.342;2022-12-07T06:53:49;244.85;;;33.53;;
16117;SDS011;8163;50.118;5.342;2022-12-07T06:56:16;942.13;;;57.22;;
16117;SDS011;8163;50.118;5.342;2022-12-07T06:58:43;689.75;;;48.22;;
16117;SDS011;8163;50.118;5.342;2022-12-07T07:01:11;500.83;;;40.38;;
16117;SDS011;8163;50.118;5.342;2022-12-07T07:03:38;503.55;;;39.90;;
16117;SDS011;8163;50.118;5.342;2022-12-07T07:06:06;252.80;;;34.00;;
16117;SDS011;8163;50.118;5.342;2022-12-07T07:08:35;607.25;;;38.60;;
16117;SDS011;8163;50.118;5.342;2022-12-07T07:11:02;360.50;;;33.08;;
16117;SDS011;8163;50.118;5.342;2022-12-07T07:13:29;384.98;;;37.10;;
16117;SDS011;8163;50.118;5.342;2022-12-07T07:15:57;319.45;;;32.65;;
16117;SDS011;8163;50.118;5.342;2022-12-07T07:18:24;489.98;;;39.15;;
16117;SDS011;8163;50.118;5.342;2022-12-07T07:20:51;399.48;;;36.80;;
16117;SDS011;8163;50.118;5.342;2022-12-07T07:23:19;505.75;;;39.00;;
16117;SDS011;8163;50.118;5.342;2022-12-07T07:25:48;430.25;;;35.75;;
16117;SDS011;8163;50.118;5.342;2022-12-07T07:28:15;279.30;;;31.45;;
16117;SDS011;8163;50.118;5.342;2022-12-07T07:30:43;383.83;;;31.33;;
16117;SDS011;8163;50.118;5.342;2022-12-07T07:33:10;204.30;;;29.23;;
16117;SDS011;8163;50.118;5.342;2022-12-07T07:35:37;361.80;;;30.88;;
16117;SDS011;8163;50.118;5.342;2022-12-07T07:38:05;187.57;;;26.50;;
16117;SDS011;8163;50.118;5.342;2022-12-07T07:40:33;464.80;;;32.67;;
16117;SDS011;8163;50.118;5.342;2022-12-07T07:43:02;274.23;;;27.20;;
16117;SDS011;8163;50.118;5.342;2022-12-07T07:45:29;302.20;;;28.92;;
16117;SDS011;8163;50.118;5.342;2022-12-07T07:47:56;80.20;;;22.48;;
16117;SDS011;8163;50.118;5.342;2022-12-07T07:50:23;83.75;;;25.73;;
16117;SDS011;8163;50.118;5.342;2022-12-07T07:52:50;185.32;;;25.75;;
16117;SDS011;8163;50.118;5.342;2022-12-07T07:55:18;88.78;;;23.05;;
16117;SDS011;8163;50.118;5.342;2022-12-07T07:57:45;39.42;;;23.08;;
16117;SDS011;8163;50.118;5.342;2022-12-07T08:00:14;43.55;;;25.02;;
16117;SDS011;8163;50.118;5.342;2022-12-07T08:02:42;47.25;;;22.95;;
16117;SDS011;8163;50.118;5.342;2022-12-07T08:05:11;52.00;;;26.70;;
16117;SDS011;8163;50.118;5.342;2022-12-07T08:07:39;49.67;;;23.00;;
16117;SDS011;8163;50.118;5.342;2022-12-07T08:10:07;44.03;;;24.17;;
16117;SDS011;8163;50.118;5.342;2022-12-07T08:12:36;40.42;;;23.33;;
16117;SDS011;8163;50.118;5.342;2022-12-07T08:15:26;38.08;;;21.35;;
16117;SDS011;8163;50.118;5.342;2022-12-07T08:17:54;36.72;;;21.20;;
16117;SDS011;8163;50.118;5.342;2022-12-07T08:20:21;38.80;;;21.30;;
16117;SDS011;8163;50.118;5.342;2022-12-07T08:22:48;40.45;;;22.52;;
16117;SDS011;8163;50.118;5.342;2022-12-07T08:25:15;45.47;;;23.83;;
16117;SDS011;8163;50.118;5.342;2022-12-07T08:27:42;79.40;;;22.58;;
16117;SDS011;8163;50.118;5.342;2022-12-07T08:30:09;255.93;;;25.77;;
16117;SDS011;8163;50.118;5.342;2022-12-07T08:32:38;360.00;;;29.33;;
16117;SDS011;8163;50.118;5.342;2022-12-07T08:35:06;580.85;;;34.15;;
16117;SDS011;8163;50.118;5.342;2022-12-07T08:37:34;274.45;;;26.10;;
16117;SDS011;8163;50.118;5.342;2022-12-07T08:40:01;37.97;;;21.20;;
16117;SDS011;8163;50.118;5.342;2022-12-07T08:42:30;70.60;;;22.05;;
16117;SDS011;8163;50.118;5.342;2022-12-07T08:45:03;80.75;;;22.80;;
16117;SDS011;8163;50.118;5.342;2022-12-07T08:47:32;172.00;;;23.88;;
16117;SDS011;8163;50.118;5.342;2022-12-07T08:50:01;62.50;;;20.85;;
16117;SDS011;8163;50.118;5.342;2022-12-07T08:52:30;44.00;;;21.27;;
16117;SDS011;8163;50.118;5.342;2022-12-07T08:54:57;42.13;;;20.58;;
16117;SDS011;8163;50.118;5.342;2022-12-07T08:57:26;55.95;;;20.50;;
16117;SDS011;8163;50.118;5.342;2022-12-07T08:59:54;69.57;;;19.63;;
16117;SDS011;8163;50.118;5.342;2022-12-07T09:02:21;99.00;;;29.48;;
16117;SDS011;8163;50.118;5.342;2022-12-07T09:04:48;50.20;;;28.00;;
16117;SDS011;8163;50.118;5.342;2022-12-07T09:07:17;308.02;;;30.60;;
16117;SDS011;8163;50.118;5.342;2022-12-07T09:09:44;252.80;;;27.40;;
16117;SDS011;8163;50.118;5.342;2022-12-07T09:12:11;164.82;;;28.92;;
16117;SDS011;8163;50.118;5.342;2022-12-07T09:14:38;142.73;;;37.00;;
16117;SDS011;8163;50.118;5.342;2022-12-07T09:17:06;131.90;;;22.75;;
16117;SDS011;8163;50.118;5.342;2022-12-07T09:19:34;792.40;;;39.80;;
16117;SDS011;8163;50.118;5.342;2022-12-07T09:22:01;582.92;;;73.40;;
16117;SDS011;8163;50.118;5.342;2022-12-07T09:24:31;295.88;;;24.75;;
16117;SDS011;8163;50.118;5.342;2022-12-07T09:26:58;369.88;;;23.92;;
16117;SDS011;8163;50.118;5.342;2022-12-07T09:29:25;279.45;;;23.80;;
16117;SDS011;8163;50.118;5.342;2022-12-07T09:31:52;365.65;;;27.13;;
16117;SDS011;8163;50.118;5.342;2022-12-07T09:34:19;865.00;;;39.45;;
16117;SDS011;8163;50.118;5.342;2022-12-07T09:36:47;533.28;;;30.10;;
16117;SDS011;8163;50.118;5.342;2022-12-07T09:39:14;276.13;;;27.25;;
16117;SDS011;8163;50.118;5.342;2022-12-07T09:41:43;271.05;;;24.77;;
16117;SDS011;8163;50.118;5.342;2022-12-07T09:44:12;428.88;;;27.90;;
16117;SDS011;8163;50.118;5.342;2022-12-07T09:46:41;118.78;;;24.17;;
16117;SDS011;8163;50.118;5.342;2022-12-07T09:49:12;270.15;;;33.83;;
16117;SDS011;8163;50.118;5.342;2022-12-07T09:51:42;134.38;;;40.45;;
16117;SDS011;8163;50.118;5.342;2022-12-07T09:54:11;93.10;;;25.05;;
16117;SDS011;8163;50.118;5.342;2022-12-07T09:56:40;42.97;;;21.95;;
16117;SDS011;8163;50.118;5.342;2022-12-07T09:59:12;61.17;;;32.20;;
16117;SDS011;8163;50.118;5.342;2022-12-07T10:01:44;49.50;;;24.38;;
16117;SDS011;8163;50.118;5.342;2022-12-07T10:04:14;79.95;;;32.45;;
16117;SDS011;8163;50.118;5.342;2022-12-07T10:06:44;65.00;;;25.73;;
16117;SDS011;8163;50.118;5.342;2022-12-07T10:09:13;327.75;;;79.47;;
16117;SDS011;8163;50.118;5.342;2022-12-07T10:11:57;150.23;;;32.97;;
16117;SDS011;8163;50.118;5.342;2022-12-07T10:14:28;162.60;;;25.20;;
16117;SDS011;8163;50.118;5.342;2022-12-07T10:16:56;77.63;;;29.65;;
16117;SDS011;8163;50.118;5.342;2022-12-07T10:19:24;363.48;;;42.65;;
16117;SDS011;8163;50.118;5.342;2022-12-07T10:22:04;249.85;;;41.22;;
16117;SDS011;8163;50.118;5.342;2022-12-07T10:24:36;159.48;;;66.85;;
16117;SDS011;8163;50.118;5.342;2022-12-07T10:27:04;275.77;;;48.30;;
16117;SDS011;8163;50.118;5.342;2022-12-07T10:29:46;147.57;;;94.32;;
16117;SDS011;8163;50.118;5.342;2022-12-07T10:32:26;53.40;;;25.25;;
16117;SDS011;8163;50.118;5.342;2022-12-07T10:35:15;103.43;;;23.13;;
16117;SDS011;8163;50.118;5.342;2022-12-07T10:37:47;61.70;;;36.55;;
16117;SDS011;8163;50.118;5.342;2022-12-07T10:40:28;119.88;;;22.92;;
16117;SDS011;8163;50.118;5.342;2022-12-07T10:43:05;84.43;;;20.35;;
16117;SDS011;8163;50.118;5.342;2022-12-07T10:45:53;52.58;;;20.23;;
16117;SDS011;8163;50.118;5.342;2022-12-07T10:49:00;40.97;;;23.05;;
16117;SDS011;8163;50.118;5.342;2022-12-07T10:51:34;87.45;;;20.08;;
16117;SDS011;8163;50.118;5.342;2022-12-07T10:54:12;45.95;;;18.45;;
16117;SDS011;8163;50.118;5.342;2022-12-07T10:59:49;44.83;;;23.55;;
16117;SDS011;8163;50.118;5.342;2022-12-07T11:02:30;30.65;;;20.88;;
16117;SDS011;8163;50.118;5.342;2022-12-07T11:05:12;30.35;;;19.63;;
16117;SDS011;8163;50.118;5.342;2022-12-07T11:07:47;68.50;;;18.27;;
16117;SDS011;8163;50.118;5.342;2022-12-07T11:10:24;110.03;;;35.88;;
16117;SDS011;8163;50.118;5.342;2022-12-07T11:12:58;44.13;;;18.00;;
16117;SDS011;8163;50.118;5.342;2022-12-07T11:15:43;61.17;;;18.15;;
16117;SDS011;8163;50.118;5.342;2022-12-07T11:18:24;40.00;;;18.10;;
16117;SDS011;8163;50.118;5.342;2022-12-07T11:20:59;37.10;;;18.15;;
16117;SDS011;8163;50.118;5.342;2022-12-07T11:23:39;32.70;;;18.17;;
16117;SDS011;8163;50.118;5.342;2022-12-07T11:26:14;29.98;;;16.50;;
16117;SDS011;8163;50.118;5.342;2022-12-07T11:28:53;32.40;;;15.85;;
16117;SDS011;8163;50.118;5.342;2022-12-07T11:31:36;21.05;;;14.25;;
16117;SDS011;8163;50.118;5.342;2022-12-07T11:34:17;28.23;;;16.27;;
16117;SDS011;8163;50.118;5.342;2022-12-07T11:36:51;24.98;;;16.10;;
16117;SDS011;8163;50.118;5.342;2022-12-07T11:39:22;24.05;;;15.32;;
16117;SDS011;8163;50.118;5.342;2022-12-07T11:41:55;29.67;;;14.73;;
16117;SDS011;8163;50.118;5.342;2022-12-07T11:44:30;25.90;;;15.23;;
16117;SDS011;8163;50.118;5.342;2022-12-07T11:47:00;26.05;;;14.02;;
16117;SDS011;8163;50.118;5.342;2022-12-07T11:49:37;21.17;;;12.30;;
16117;SDS011;8163;50.118;5.342;2022-12-07T11:54:44;21.90;;;12.75;;
16117;SDS011;8163;50.118;5.342;2022-12-07T11:57:14;28.35;;;14.55;;
16117;SDS011;8163;50.118;5.342;2022-12-07T11:59:47;26.02;;;18.55;;
16117;SDS011;8163;50.118;5.342;2022-12-07T12:02:19;20.10;;;13.48;;
16117;SDS011;8163;50.118;5.342;2022-12-07T12:04:53;24.85;;;14.63;;
16117;SDS011;8163;50.118;5.342;2022-12-07T12:07:26;24.30;;;15.98;;
16117;SDS011;8163;50.118;5.342;2022-12-07T12:09:55;24.73;;;13.43;;
16117;SDS011;8163;50.118;5.342;2022-12-07T12:12:38;22.70;;;14.48;;
16117;SDS011;8163;50.118;5.342;2022-12-07T12:15:30;24.35;;;15.10;;
16117;SDS011;8163;50.118;5.342;2022-12-07T12:21:04;43.25;;;29.45;;
16117;SDS011;8163;50.118;5.342;2022-12-07T12:23:37;40.78;;;15.80;;
16117;SDS011;8163;50.118;5.342;2022-12-07T12:26:08;28.17;;;15.18;;
16117;SDS011;8163;50.118;5.342;2022-12-07T12:28:44;26.80;;;14.10;;
16117;SDS011;8163;50.118;5.342;2022-12-07T12:31:29;32.83;;;16.38;;
16117;SDS011;8163;50.118;5.342;2022-12-07T12:34:02;27.90;;;13.43;;
16117;SDS011;8163;50.118;5.342;2022-12-07T12:36:46;47.05;;;17.48;;
16117;SDS011;8163;50.118;5.342;2022-12-07T12:39:14;31.48;;;16.80;;
16117;SDS011;8163;50.118;5.342;2022-12-07T12:41:59;33.55;;;17.05;;
16117;SDS011;8163;50.118;5.342;2022-12-07T12:47:40;32.10;;;17.10;;
16117;SDS011;8163;50.118;5.342;2022-12-07T12:50:22;32.58;;;19.35;;
16117;SDS011;8163;50.118;5.342;2022-12-07T12:52:56;45.20;;;28.50;;
16117;SDS011;8163;50.118;5.342;2022-12-07T12:59:21;27.33;;;15.77;;
16117;SDS011;8163;50.118;5.342;2022-12-07T13:01:51;30.05;;;18.13;;
16117;SDS011;8163;50.118;5.342;2022-12-07T13:04:34;48.72;;;15.68;;
16117;SDS011;8163;50.118;5.342;2022-12-07T13:10:21;30.20;;;14.25;;
16117;SDS011;8163;50.118;5.342;2022-12-07T13:13:04;25.20;;;16.58;;
16117;SDS011;8163;50.118;5.342;2022-12-07T13:15:51;28.30;;;15.38;;
16117;SDS011;8163;50.118;5.342;2022-12-07T13:18:23;28.38;;;17.52;;
16117;SDS011;8163;50.118;5.342;2022-12-07T13:20:52;25.25;;;14.88;;
16117;SDS011;8163;50.118;5.342;2022-12-07T13:23:25;24.80;;;14.95;;
16117;SDS011;8163;50.118;5.342;2022-12-07T13:26:16;28.73;;;15.10;;
16117;SDS011;8163;50.118;5.342;2022-12-07T13:28:45;25.08;;;14.88;;
16117;SDS011;8163;50.118;5.342;2022-12-07T13:31:19;21.42;;;13.45;;
16117;SDS011;8163;50.118;5.342;2022-12-07T13:33:56;21.08;;;13.00;;
16117;SDS011;8163;50.118;5.342;2022-12-07T13:36:24;24.17;;;13.18;;
16117;SDS011;8163;50.118;5.342;2022-12-07T13:38:54;31.92;;;16.60;;
16117;SDS011;8163;50.118;5.342;2022-12-07T13:41:24;26.65;;;13.68;;
16117;SDS011;8163;50.118;5.342;2022-12-07T13:43:53;24.83;;;13.38;;
16117;SDS011;8163;50.118;5.342;2022-12-07T13:46:40;24.45;;;12.25;;
16117;SDS011;8163;50.118;5.342;2022-12-07T13:49:17;22.45;;;13.95;;
16117;SDS011;8163;50.118;5.342;2022-12-07T13:51:46;17.95;;;12.05;;
16117;SDS011;8163;50.118;5.342;2022-12-07T13:54:14;21.08;;;11.88;;
16117;SDS011;8163;50.118;5.342;2022-12-07T13:56:43;23.80;;;12.40;;
16117;SDS011;8163;50.118;5.342;2022-12-07T14:37:36;26.92;;;15.75;;
16117;SDS011;8163;50.118;5.342;2022-12-07T14:40:04;34.10;;;21.05;;
16117;SDS011;8163;50.118;5.342;2022-12-07T14:42:33;41.70;;;28.08;;
16117;SDS011;8163;50.118;5.342;2022-12-07T14:45:03;22.98;;;15.48;;
16117;SDS011;8163;50.118;5.342;2022-12-07T14:47:32;19.40;;;14.75;;
16117;SDS011;8163;50.118;5.342;2022-12-07T14:49:59;22.40;;;14.63;;
16117;SDS011;8163;50.118;5.342;2022-12-07T14:52:26;23.15;;;16.02;;
16117;SDS011;8163;50.118;5.342;2022-12-07T14:54:57;26.45;;;14.52;;
16117;SDS011;8163;50.118;5.342;2022-12-07T14:57:25;23.75;;;13.35;;
16117;SDS011;8163;50.118;5.342;2022-12-07T14:59:52;20.15;;;12.32;;
16117;SDS011;8163;50.118;5.342;2022-12-07T15:02:19;37.10;;;19.45;;
16117;SDS011;8163;50.118;5.342;2022-12-07T15:04:46;31.88;;;18.30;;
16117;SDS011;8163;50.118;5.342;2022-12-07T15:07:15;27.75;;;15.68;;
16117;SDS011;8163;50.118;5.342;2022-12-07T15:09:45;33.88;;;22.08;;
16117;SDS011;8163;50.118;5.342;2022-12-07T15:12:14;28.65;;;15.00;;
16117;SDS011;8163;50.118;5.342;2022-12-07T15:14:41;35.90;;;20.80;;
16117;SDS011;8163;50.118;5.342;2022-12-07T15:17:09;26.60;;;14.75;;
16117;SDS011;8163;50.118;5.342;2022-12-07T15:19:38;22.38;;;13.02;;
16117;SDS011;8163;50.118;5.342;2022-12-07T15:22:05;30.48;;;14.32;;
16117;SDS011;8163;50.118;5.342;2022-12-07T15:24:32;20.45;;;12.10;;
16117;SDS011;8163;50.118;5.342;2022-12-07T15:27:00;17.13;;;10.82;;
16117;SDS011;8163;50.118;5.342;2022-12-07T15:29:28;13.32;;;7.53;;
16117;SDS011;8163;50.118;5.342;2022-12-07T15:31:55;14.60;;;8.23;;
16117;SDS011;8163;50.118;5.342;2022-12-07T15:34:23;9.52;;;6.80;;
16117;SDS011;8163;50.118;5.342;2022-12-07T15:36:51;9.93;;;6.05;;
16117;SDS011;8163;50.118;5.342;2022-12-07T15:39:18;12.07;;;8.48;;
16117;SDS011;8163;50.118;5.342;2022-12-07T15:41:46;17.95;;;10.85;;
16117;SDS011;8163;50.118;5.342;2022-12-07T15:44:13;20.40;;;10.45;;